Track Трапезникова Алена

Time Latitude Longitude Accuracy (66% radius in meters) Altitude (meters) Speed (km/hour) Bearing (degrees) Battery (%) GPS flag
08:38:30 60.370978 29.556333 12 76 0 327.45812988281 67 1 delete
08:38:18 60.370983 29.556306 8 78 0 196.46687316895 67 1 delete
08:38:10 60.370987 29.556295 12 80 0 196.46687316895 67 1 delete
08:38:06 60.370990 29.556313 4 83 0 196.46687316895 67 1 delete
08:37:53 60.370991 29.556327 6 78 0 316.94592285156 67 1 delete
08:37:40 60.370991 29.556368 6 82 0 167.67771911621 67 1 delete
08:37:33 60.371002 29.556389 8 88 0 167.67771911621 67 1 delete
08:37:27 60.370970 29.556358 8 86 0 167.67771911621 67 1 delete
08:37:15 60.370948 29.556314 8 77 0 1.7444376945496 67 1 delete
08:37:02 60.370970 29.556292 8 79 0 1.7444376945496 67 1 delete
08:36:50 60.370967 29.556261 8 81 0 211.94799804688 67 1 delete
08:36:38 60.370943 29.556300 8 85 0 170.49644470215 67 1 delete
08:36:25 60.370975 29.556302 6 79 0 202.44619750977 67 1 delete
08:36:12 60.370971 29.556316 6 78 0 164.17938232422 67 1 delete
08:36:00 60.370948 29.556315 8 83 0 193.64942932129 67 1 delete
08:35:46 60.370930 29.556330 6 80 0 193.64942932129 67 1 delete
08:35:33 60.370953 29.556341 6 84 0 59.646190643311 67 1 delete
08:35:31 60.370961 29.556346 12 82 0 59.646190643311 67 1 delete
08:35:20 60.370972 29.556327 6 80 0 261.16235351562 67 1 delete
08:35:06 60.370967 29.556329 8 69 0 247.12211608887 67 1 delete
08:34:54 60.371006 29.556387 8 67 0 247.12211608887 67 1 delete
08:34:41 60.371014 29.556363 12 71 0.42447081208229 281.75366210938 67 1 delete
08:34:39 60.371005 29.556368 12 69 0.40833759307861 330.57302856445 67 1 delete
08:34:29 60.370989 29.556364 6 62 0 29.706802368164 67 1 delete
08:34:16 60.370970 29.556370 8 59 0 341.56942749023 67 1 delete
08:34:04 60.370967 29.556316 8 66 0 29.122478485107 67 1 delete
08:34:00 60.370967 29.556313 16 77 0 29.122478485107 67 1 delete
08:33:51 60.370999 29.556332 6 83 0 29.122478485107 67 1 delete
08:33:43 60.371007 29.556367 12 75 0 29.122478485107 67 1 delete
08:33:39 60.371032 29.556418 6 75 0 32.946849822998 67 1 delete
08:33:31 60.371032 29.556451 8 75 0.59444093704224 331.53207397461 67 1 delete
08:33:27 60.371017 29.556414 8 80 0.3528978228569 6.5765190124512 67 1 delete
08:33:25 60.370997 29.556388 12 83 0.21594974398613 2.2345435619354 67 1 delete
08:33:14 60.370979 29.556412 12 84 0 127.55330657959 67 1 delete
08:33:01 60.370969 29.556375 8 72 0 127.55330657959 67 1 delete
08:32:48 60.370965 29.556350 12 69 0 350.11968994141 67 1 delete
08:32:36 60.370951 29.556394 6 63 0 198.90950012207 67 1 delete
08:32:23 60.370970 29.556382 8 71 0 131.95503234863 67 1 delete
08:32:10 60.370968 29.556399 8 74 0 131.95503234863 67 1 delete
08:31:56 60.370974 29.556386 6 75 0 131.95503234863 67 1 delete
08:31:46 60.370951 29.556379 8 59 0 358.12509155273 67 1 delete
08:31:42 60.370937 29.556352 8 55 0 251.66796875 67 1 delete
08:31:29 60.370926 29.556335 8 65 0 206.18251037598 67 1 delete
08:31:16 60.370928 29.556343 8 78 0 159.01596069336 67 1 delete
08:31:03 60.370914 29.556375 8 77 0 159.01596069336 67 1 delete
08:30:55 60.370903 29.556364 24 83 0 159.01596069336 67 1 delete
08:30:51 60.370890 29.556334 8 76 0 159.01596069336 67 1 delete
08:30:38 60.370864 29.556267 8 96 0.32396423816681 159.01596069336 67 1 delete
08:30:30 60.370882 29.556273 12 86 0 203.37176513672 67 1 delete
08:30:27 60.370904 29.556257 16 84 0 190.46186828613 67 1 delete